sensor_id;sensor_type;location;lat;lon;timestamp;P1;durP1;ratioP1;P2;durP2;ratioP2
22144;SDS011;11238;48.730;11.566;2023-09-18T00:00:50;9.75;;;8.85;;
22144;SDS011;11238;48.730;11.566;2023-09-18T00:03:20;10.05;;;8.50;;
22144;SDS011;11238;48.730;11.566;2023-09-18T00:05:50;8.77;;;7.95;;
22144;SDS011;11238;48.730;11.566;2023-09-18T00:08:16;8.50;;;7.70;;
22144;SDS011;11238;48.730;11.566;2023-09-18T00:10:47;9.20;;;8.13;;
22144;SDS011;11238;48.730;11.566;2023-09-18T00:13:18;8.40;;;7.60;;
22144;SDS011;11238;48.730;11.566;2023-09-18T00:15:44;8.80;;;7.47;;
22144;SDS011;11238;48.730;11.566;2023-09-18T00:18:15;8.35;;;7.55;;
22144;SDS011;11238;48.730;11.566;2023-09-18T00:20:41;8.80;;;7.90;;
22144;SDS011;11238;48.730;11.566;2023-09-18T00:23:08;9.63;;;8.40;;
22144;SDS011;11238;48.730;11.566;2023-09-18T00:25:34;9.00;;;8.15;;
22144;SDS011;11238;48.730;11.566;2023-09-18T00:28:00;8.38;;;7.40;;
22144;SDS011;11238;48.730;11.566;2023-09-18T00:30:26;9.55;;;7.88;;
22144;SDS011;11238;48.730;11.566;2023-09-18T00:32:52;8.02;;;7.22;;
22144;SDS011;11238;48.730;11.566;2023-09-18T00:35:18;8.10;;;7.30;;
22144;SDS011;11238;48.730;11.566;2023-09-18T00:37:44;8.35;;;7.53;;
22144;SDS011;11238;48.730;11.566;2023-09-18T00:40:09;8.52;;;7.63;;
22144;SDS011;11238;48.730;11.566;2023-09-18T00:42:37;10.75;;;7.20;;
22144;SDS011;11238;48.730;11.566;2023-09-18T00:45:02;9.73;;;7.60;;
22144;SDS011;11238;48.730;11.566;2023-09-18T00:47:28;10.82;;;7.40;;
22144;SDS011;11238;48.730;11.566;2023-09-18T00:49:54;8.00;;;7.20;;
22144;SDS011;11238;48.730;11.566;2023-09-18T00:52:21;8.73;;;7.90;;
22144;SDS011;11238;48.730;11.566;2023-09-18T00:54:48;8.18;;;7.35;;
22144;SDS011;11238;48.730;11.566;2023-09-18T00:57:15;8.50;;;7.30;;
22144;SDS011;11238;48.730;11.566;2023-09-18T00:59:42;8.13;;;7.15;;
22144;SDS011;11238;48.730;11.566;2023-09-18T01:02:07;8.48;;;7.57;;
22144;SDS011;11238;48.730;11.566;2023-09-18T01:04:34;8.13;;;7.32;;
22144;SDS011;11238;48.730;11.566;2023-09-18T01:07:00;8.07;;;7.35;;
22144;SDS011;11238;48.730;11.566;2023-09-18T01:09:29;8.48;;;7.40;;
22144;SDS011;11238;48.730;11.566;2023-09-18T01:12:00;8.18;;;7.38;;
22144;SDS011;11238;48.730;11.566;2023-09-18T01:17:18;7.95;;;6.82;;
22144;SDS011;11238;48.730;11.566;2023-09-18T01:19:45;7.68;;;6.97;;
22144;SDS011;11238;48.730;11.566;2023-09-18T01:22:16;10.65;;;7.40;;
22144;SDS011;11238;48.730;11.566;2023-09-18T01:24:43;7.68;;;6.97;;
22144;SDS011;11238;48.730;11.566;2023-09-18T01:27:13;7.80;;;6.70;;
22144;SDS011;11238;48.730;11.566;2023-09-18T01:29:44;7.72;;;6.47;;
22144;SDS011;11238;48.730;11.566;2023-09-18T01:32:11;8.23;;;7.07;;
22144;SDS011;11238;48.730;11.566;2023-09-18T01:34:41;7.32;;;6.63;;
22144;SDS011;11238;48.730;11.566;2023-09-18T01:37:11;7.32;;;6.55;;
22144;SDS011;11238;48.730;11.566;2023-09-18T01:39:40;8.20;;;7.38;;
22144;SDS011;11238;48.730;11.566;2023-09-18T01:42:07;7.72;;;6.70;;
22144;SDS011;11238;48.730;11.566;2023-09-18T01:44:36;8.20;;;6.78;;
22144;SDS011;11238;48.730;11.566;2023-09-18T01:47:09;7.53;;;6.78;;
22144;SDS011;11238;48.730;11.566;2023-09-18T01:49:38;10.63;;;7.57;;
22144;SDS011;11238;48.730;11.566;2023-09-18T01:52:06;8.02;;;7.10;;
22144;SDS011;11238;48.730;11.566;2023-09-18T01:54:34;11.70;;;7.47;;
22144;SDS011;11238;48.730;11.566;2023-09-18T01:57:00;7.63;;;6.60;;
22144;SDS011;11238;48.730;11.566;2023-09-18T01:59:27;7.80;;;7.10;;
22144;SDS011;11238;48.730;11.566;2023-09-18T02:01:53;7.53;;;6.80;;
22144;SDS011;11238;48.730;11.566;2023-09-18T02:04:20;8.55;;;7.65;;
22144;SDS011;11238;48.730;11.566;2023-09-18T02:06:49;7.95;;;7.13;;
22144;SDS011;11238;48.730;11.566;2023-09-18T02:09:15;8.32;;;6.97;;
22144;SDS011;11238;48.730;11.566;2023-09-18T02:11:42;7.82;;;7.03;;
22144;SDS011;11238;48.730;11.566;2023-09-18T02:14:11;9.30;;;7.10;;
22144;SDS011;11238;48.730;11.566;2023-09-18T02:16:38;7.35;;;6.65;;
22144;SDS011;11238;48.730;11.566;2023-09-18T02:19:12;8.50;;;7.57;;
22144;SDS011;11238;48.730;11.566;2023-09-18T02:21:39;8.30;;;7.43;;
22144;SDS011;11238;48.730;11.566;2023-09-18T02:24:05;8.93;;;7.75;;
22144;SDS011;11238;48.730;11.566;2023-09-18T02:26:31;7.75;;;7.05;;
22144;SDS011;11238;48.730;11.566;2023-09-18T02:29:01;9.38;;;7.65;;
22144;SDS011;11238;48.730;11.566;2023-09-18T02:31:32;10.32;;;7.88;;
22144;SDS011;11238;48.730;11.566;2023-09-18T02:33:58;8.50;;;7.22;;
22144;SDS011;11238;48.730;11.566;2023-09-18T02:36:24;8.20;;;7.40;;
22144;SDS011;11238;48.730;11.566;2023-09-18T02:38:50;9.77;;;7.60;;
22144;SDS011;11238;48.730;11.566;2023-09-18T02:41:15;8.38;;;7.50;;
22144;SDS011;11238;48.730;11.566;2023-09-18T02:43:41;8.25;;;7.30;;
22144;SDS011;11238;48.730;11.566;2023-09-18T02:46:07;8.18;;;7.38;;
22144;SDS011;11238;48.730;11.566;2023-09-18T02:48:33;8.95;;;7.70;;
22144;SDS011;11238;48.730;11.566;2023-09-18T02:51:00;9.15;;;7.57;;
22144;SDS011;11238;48.730;11.566;2023-09-18T02:53:26;9.13;;;8.13;;
22144;SDS011;11238;48.730;11.566;2023-09-18T02:56:14;8.70;;;7.78;;
22144;SDS011;11238;48.730;11.566;2023-09-18T02:58:41;8.68;;;7.78;;
22144;SDS011;11238;48.730;11.566;2023-09-18T03:01:07;9.18;;;7.78;;
22144;SDS011;11238;48.730;11.566;2023-09-18T03:03:34;8.98;;;8.18;;
22144;SDS011;11238;48.730;11.566;2023-09-18T03:06:00;8.82;;;7.93;;
22144;SDS011;11238;48.730;11.566;2023-09-18T03:08:28;11.25;;;8.45;;
22144;SDS011;11238;48.730;11.566;2023-09-18T03:10:55;8.95;;;8.05;;
22144;SDS011;11238;48.730;11.566;2023-09-18T03:13:22;10.85;;;7.40;;
22144;SDS011;11238;48.730;11.566;2023-09-18T03:15:47;9.55;;;7.82;;
22144;SDS011;11238;48.730;11.566;2023-09-18T03:18:14;9.65;;;7.25;;
22144;SDS011;11238;48.730;11.566;2023-09-18T03:20:41;10.90;;;8.13;;
22144;SDS011;11238;48.730;11.566;2023-09-18T03:23:08;9.15;;;7.88;;
22144;SDS011;11238;48.730;11.566;2023-09-18T03:25:35;8.73;;;7.93;;
22144;SDS011;11238;48.730;11.566;2023-09-18T03:28:03;8.77;;;7.38;;
22144;SDS011;11238;48.730;11.566;2023-09-18T03:30:32;8.80;;;7.28;;
22144;SDS011;11238;48.730;11.566;2023-09-18T03:32:58;9.70;;;7.68;;
22144;SDS011;11238;48.730;11.566;2023-09-18T03:35:25;9.35;;;8.15;;
22144;SDS011;11238;48.730;11.566;2023-09-18T03:37:53;9.20;;;8.35;;
22144;SDS011;11238;48.730;11.566;2023-09-18T03:40:20;10.07;;;8.25;;
22144;SDS011;11238;48.730;11.566;2023-09-18T03:42:47;8.88;;;7.85;;
22144;SDS011;11238;48.730;11.566;2023-09-18T03:45:15;8.77;;;7.97;;
22144;SDS011;11238;48.730;11.566;2023-09-18T03:47:46;12.18;;;8.57;;
22144;SDS011;11238;48.730;11.566;2023-09-18T03:50:12;8.75;;;7.85;;
22144;SDS011;11238;48.730;11.566;2023-09-18T03:52:38;9.32;;;8.20;;
22144;SDS011;11238;48.730;11.566;2023-09-18T03:55:06;9.70;;;8.70;;
22144;SDS011;11238;48.730;11.566;2023-09-18T03:57:32;9.35;;;8.40;;
22144;SDS011;11238;48.730;11.566;2023-09-18T03:59:59;9.60;;;8.50;;
22144;SDS011;11238;48.730;11.566;2023-09-18T04:02:25;9.85;;;8.35;;
22144;SDS011;11238;48.730;11.566;2023-09-18T04:04:51;8.73;;;7.82;;
22144;SDS011;11238;48.730;11.566;2023-09-18T04:07:19;8.77;;;7.75;;
22144;SDS011;11238;48.730;11.566;2023-09-18T04:09:45;9.30;;;8.30;;
22144;SDS011;11238;48.730;11.566;2023-09-18T04:12:11;10.40;;;8.88;;
22144;SDS011;11238;48.730;11.566;2023-09-18T04:14:37;9.90;;;8.63;;
22144;SDS011;11238;48.730;11.566;2023-09-18T04:17:03;9.45;;;8.45;;
22144;SDS011;11238;48.730;11.566;2023-09-18T04:19:29;10.95;;;9.05;;
22144;SDS011;11238;48.730;11.566;2023-09-18T04:21:56;9.90;;;8.90;;
22144;SDS011;11238;48.730;11.566;2023-09-18T04:24:22;12.27;;;8.52;;
22144;SDS011;11238;48.730;11.566;2023-09-18T04:26:49;9.20;;;8.05;;
22144;SDS011;11238;48.730;11.566;2023-09-18T04:29:18;13.10;;;8.43;;
22144;SDS011;11238;48.730;11.566;2023-09-18T04:31:44;9.15;;;8.25;;
22144;SDS011;11238;48.730;11.566;2023-09-18T04:34:10;10.45;;;8.35;;
22144;SDS011;11238;48.730;11.566;2023-09-18T04:36:36;11.15;;;8.38;;
22144;SDS011;11238;48.730;11.566;2023-09-18T04:39:04;9.57;;;8.57;;
22144;SDS011;11238;48.730;11.566;2023-09-18T04:41:32;10.65;;;8.95;;
22144;SDS011;11238;48.730;11.566;2023-09-18T04:43:58;11.38;;;8.70;;
22144;SDS011;11238;48.730;11.566;2023-09-18T04:46:25;8.95;;;8.05;;
22144;SDS011;11238;48.730;11.566;2023-09-18T04:48:51;11.02;;;8.93;;
22144;SDS011;11238;48.730;11.566;2023-09-18T04:51:17;10.80;;;8.57;;
22144;SDS011;11238;48.730;11.566;2023-09-18T04:53:44;9.75;;;8.82;;
22144;SDS011;11238;48.730;11.566;2023-09-18T04:56:10;9.90;;;8.90;;
22144;SDS011;11238;48.730;11.566;2023-09-18T04:58:36;9.70;;;8.75;;
22144;SDS011;11238;48.730;11.566;2023-09-18T05:01:02;10.30;;;9.20;;
22144;SDS011;11238;48.730;11.566;2023-09-18T05:03:32;11.68;;;9.75;;
22144;SDS011;11238;48.730;11.566;2023-09-18T05:05:59;14.07;;;9.27;;
22144;SDS011;11238;48.730;11.566;2023-09-18T05:08:25;11.27;;;8.93;;
22144;SDS011;11238;48.730;11.566;2023-09-18T05:10:51;11.73;;;8.93;;
22144;SDS011;11238;48.730;11.566;2023-09-18T05:13:17;10.32;;;9.30;;
22144;SDS011;11238;48.730;11.566;2023-09-18T05:15:43;10.80;;;9.15;;
22144;SDS011;11238;48.730;11.566;2023-09-18T05:18:09;12.43;;;9.15;;
22144;SDS011;11238;48.730;11.566;2023-09-18T05:20:34;10.30;;;9.10;;
22144;SDS011;11238;48.730;11.566;2023-09-18T05:23:00;10.98;;;9.35;;
22144;SDS011;11238;48.730;11.566;2023-09-18T05:25:29;10.85;;;9.32;;
22144;SDS011;11238;48.730;11.566;2023-09-18T05:27:59;9.45;;;8.45;;
22144;SDS011;11238;48.730;11.566;2023-09-18T05:30:26;10.55;;;9.45;;
22144;SDS011;11238;48.730;11.566;2023-09-18T05:32:56;10.88;;;8.88;;
22144;SDS011;11238;48.730;11.566;2023-09-18T05:35:29;10.05;;;8.48;;
22144;SDS011;11238;48.730;11.566;2023-09-18T05:37:55;12.32;;;9.27;;
22144;SDS011;11238;48.730;11.566;2023-09-18T05:40:24;10.73;;;8.30;;
22144;SDS011;11238;48.730;11.566;2023-09-18T05:42:53;10.52;;;8.88;;
22144;SDS011;11238;48.730;11.566;2023-09-18T05:45:20;14.70;;;9.45;;
22144;SDS011;11238;48.730;11.566;2023-09-18T05:47:47;11.30;;;9.15;;
22144;SDS011;11238;48.730;11.566;2023-09-18T05:50:13;10.32;;;8.27;;
22144;SDS011;11238;48.730;11.566;2023-09-18T05:52:41;9.90;;;7.05;;
22144;SDS011;11238;48.730;11.566;2023-09-18T05:55:08;10.15;;;7.93;;
22144;SDS011;11238;48.730;11.566;2023-09-18T05:57:36;7.63;;;6.63;;
22144;SDS011;11238;48.730;11.566;2023-09-18T06:00:03;10.93;;;7.68;;
22144;SDS011;11238;48.730;11.566;2023-09-18T06:02:39;10.30;;;8.25;;
22144;SDS011;11238;48.730;11.566;2023-09-18T06:05:05;12.82;;;9.13;;
22144;SDS011;11238;48.730;11.566;2023-09-18T06:07:31;11.82;;;7.90;;
22144;SDS011;11238;48.730;11.566;2023-09-18T06:09:58;12.95;;;8.45;;
22144;SDS011;11238;48.730;11.566;2023-09-18T06:12:23;9.93;;;8.88;;
22144;SDS011;11238;48.730;11.566;2023-09-18T06:14:51;9.80;;;8.90;;
22144;SDS011;11238;48.730;11.566;2023-09-18T06:17:17;11.00;;;9.35;;
22144;SDS011;11238;48.730;11.566;2023-09-18T06:19:43;10.45;;;9.35;;
22144;SDS011;11238;48.730;11.566;2023-09-18T06:22:11;11.27;;;9.80;;
22144;SDS011;11238;48.730;11.566;2023-09-18T06:24:37;10.50;;;9.40;;
22144;SDS011;11238;48.730;11.566;2023-09-18T06:27:03;13.90;;;9.55;;
22144;SDS011;11238;48.730;11.566;2023-09-18T06:29:33;10.73;;;9.65;;
22144;SDS011;11238;48.730;11.566;2023-09-18T06:31:59;12.55;;;9.23;;
22144;SDS011;11238;48.730;11.566;2023-09-18T06:34:26;8.93;;;7.55;;
22144;SDS011;11238;48.730;11.566;2023-09-18T06:36:53;10.07;;;7.80;;
22144;SDS011;11238;48.730;11.566;2023-09-18T06:39:19;8.50;;;7.60;;
22144;SDS011;11238;48.730;11.566;2023-09-18T06:41:49;10.48;;;7.57;;
22144;SDS011;11238;48.730;11.566;2023-09-18T06:44:18;10.18;;;7.90;;
22144;SDS011;11238;48.730;11.566;2023-09-18T06:46:46;11.25;;;9.57;;
22144;SDS011;11238;48.730;11.566;2023-09-18T06:49:12;9.02;;;8.13;;
22144;SDS011;11238;48.730;11.566;2023-09-18T06:51:38;7.85;;;7.03;;
22144;SDS011;11238;48.730;11.566;2023-09-18T06:54:04;8.98;;;8.07;;
22144;SDS011;11238;48.730;11.566;2023-09-18T06:56:30;9.55;;;8.50;;
22144;SDS011;11238;48.730;11.566;2023-09-18T06:58:56;10.55;;;7.80;;
22144;SDS011;11238;48.730;11.566;2023-09-18T07:01:22;12.05;;;8.68;;
22144;SDS011;11238;48.730;11.566;2023-09-18T07:03:49;8.73;;;7.82;;
22144;SDS011;11238;48.730;11.566;2023-09-18T07:06:15;8.73;;;7.47;;
22144;SDS011;11238;48.730;11.566;2023-09-18T07:08:43;8.18;;;7.38;;
22144;SDS011;11238;48.730;11.566;2023-09-18T07:11:09;8.77;;;7.88;;
22144;SDS011;11238;48.730;11.566;2023-09-18T07:13:35;7.82;;;6.95;;
22144;SDS011;11238;48.730;11.566;2023-09-18T07:16:01;7.75;;;6.95;;
22144;SDS011;11238;48.730;11.566;2023-09-18T07:18:29;8.73;;;7.82;;
22144;SDS011;11238;48.730;11.566;2023-09-18T07:20:56;8.68;;;6.78;;
22144;SDS011;11238;48.730;11.566;2023-09-18T07:23:21;10.60;;;7.05;;
22144;SDS011;11238;48.730;11.566;2023-09-18T07:25:50;12.23;;;7.95;;
22144;SDS011;11238;48.730;11.566;2023-09-18T07:28:16;7.05;;;6.35;;
22144;SDS011;11238;48.730;11.566;2023-09-18T07:30:44;7.13;;;6.43;;
22144;SDS011;11238;48.730;11.566;2023-09-18T07:33:11;9.40;;;7.30;;
22144;SDS011;11238;48.730;11.566;2023-09-18T07:35:37;7.82;;;7.03;;
22144;SDS011;11238;48.730;11.566;2023-09-18T07:40:50;8.60;;;7.57;;
22144;SDS011;11238;48.730;11.566;2023-09-18T07:43:16;6.97;;;6.28;;
22144;SDS011;11238;48.730;11.566;2023-09-18T07:45:48;8.32;;;6.88;;
22144;SDS011;11238;48.730;11.566;2023-09-18T07:48:25;7.28;;;6.53;;
22144;SDS011;11238;48.730;11.566;2023-09-18T07:50:53;9.48;;;7.05;;
22144;SDS011;11238;48.730;11.566;2023-09-18T07:53:20;7.85;;;7.05;;
22144;SDS011;11238;48.730;11.566;2023-09-18T07:55:47;8.50;;;7.18;;
22144;SDS011;11238;48.730;11.566;2023-09-18T07:58:20;10.27;;;6.95;;
22144;SDS011;11238;48.730;11.566;2023-09-18T08:00:46;6.50;;;5.78;;
22144;SDS011;11238;48.730;11.566;2023-09-18T08:03:13;7.72;;;6.53;;
22144;SDS011;11238;48.730;11.566;2023-09-18T08:05:39;9.30;;;6.53;;
22144;SDS011;11238;48.730;11.566;2023-09-18T08:08:05;6.82;;;5.15;;
22144;SDS011;11238;48.730;11.566;2023-09-18T08:10:31;6.93;;;5.47;;
22144;SDS011;11238;48.730;11.566;2023-09-18T08:12:57;8.73;;;6.57;;
22144;SDS011;11238;48.730;11.566;2023-09-18T08:15:23;9.85;;;7.18;;
22144;SDS011;11238;48.730;11.566;2023-09-18T08:17:51;8.63;;;5.28;;
22144;SDS011;11238;48.730;11.566;2023-09-18T08:20:21;14.13;;;6.15;;
22144;SDS011;11238;48.730;11.566;2023-09-18T08:22:47;7.55;;;5.43;;
22144;SDS011;11238;48.730;11.566;2023-09-18T08:25:14;6.70;;;5.03;;
22144;SDS011;11238;48.730;11.566;2023-09-18T08:27:40;7.28;;;6.57;;
22144;SDS011;11238;48.730;11.566;2023-09-18T08:30:09;6.45;;;5.80;;
22144;SDS011;11238;48.730;11.566;2023-09-18T08:32:39;5.63;;;5.10;;
22144;SDS011;11238;48.730;11.566;2023-09-18T08:35:06;6.90;;;5.75;;
22144;SDS011;11238;48.730;11.566;2023-09-18T08:37:33;6.65;;;5.95;;
22144;SDS011;11238;48.730;11.566;2023-09-18T08:39:59;7.07;;;5.63;;
22144;SDS011;11238;48.730;11.566;2023-09-18T08:42:35;8.20;;;5.88;;
22144;SDS011;11238;48.730;11.566;2023-09-18T08:45:08;7.38;;;5.85;;
22144;SDS011;11238;48.730;11.566;2023-09-18T08:47:38;6.13;;;4.70;;
22144;SDS011;11238;48.730;11.566;2023-09-18T08:50:08;6.97;;;5.80;;
22144;SDS011;11238;48.730;11.566;2023-09-18T08:52:35;7.20;;;4.95;;
22144;SDS011;11238;48.730;11.566;2023-09-18T08:55:02;7.82;;;6.00;;
22144;SDS011;11238;48.730;11.566;2023-09-18T08:57:38;6.38;;;5.72;;
22144;SDS011;11238;48.730;11.566;2023-09-18T09:00:06;7.85;;;5.90;;
22144;SDS011;11238;48.730;11.566;2023-09-18T09:02:34;8.82;;;6.22;;
22144;SDS011;11238;48.730;11.566;2023-09-18T09:05:00;8.75;;;6.40;;
22144;SDS011;11238;48.730;11.566;2023-09-18T09:07:27;6.70;;;5.30;;
22144;SDS011;11238;48.730;11.566;2023-09-18T09:09:56;7.97;;;5.93;;
22144;SDS011;11238;48.730;11.566;2023-09-18T09:15:14;9.32;;;6.10;;
22144;SDS011;11238;48.730;11.566;2023-09-18T09:17:40;8.07;;;5.35;;
22144;SDS011;11238;48.730;11.566;2023-09-18T09:20:08;7.75;;;5.85;;
22144;SDS011;11238;48.730;11.566;2023-09-18T09:22:41;10.82;;;6.70;;
22144;SDS011;11238;48.730;11.566;2023-09-18T09:27:55;10.30;;;6.28;;
22144;SDS011;11238;48.730;11.566;2023-09-18T09:30:22;13.13;;;6.68;;
22144;SDS011;11238;48.730;11.566;2023-09-18T09:32:50;13.93;;;6.22;;
22144;SDS011;11238;48.730;11.566;2023-09-18T09:35:27;9.00;;;5.75;;
22144;SDS011;11238;48.730;11.566;2023-09-18T09:37:59;9.35;;;5.50;;
22144;SDS011;11238;48.730;11.566;2023-09-18T09:40:26;7.85;;;5.72;;
22144;SDS011;11238;48.730;11.566;2023-09-18T09:42:55;8.75;;;5.47;;
22144;SDS011;11238;48.730;11.566;2023-09-18T09:45:32;11.85;;;6.00;;
22144;SDS011;11238;48.730;11.566;2023-09-18T09:48:02;10.95;;;6.07;;
22144;SDS011;11238;48.730;11.566;2023-09-18T09:50:29;9.32;;;5.60;;
22144;SDS011;11238;48.730;11.566;2023-09-18T09:52:58;8.85;;;5.82;;
22144;SDS011;11238;48.730;11.566;2023-09-18T09:55:25;11.77;;;5.90;;
22144;SDS011;11238;48.730;11.566;2023-09-18T09:58:00;10.50;;;5.72;;
22144;SDS011;11238;48.730;11.566;2023-09-18T10:00:49;7.25;;;5.20;;
22144;SDS011;11238;48.730;11.566;2023-09-18T10:03:17;8.13;;;4.95;;
22144;SDS011;11238;48.730;11.566;2023-09-18T10:05:45;7.72;;;4.90;;
22144;SDS011;11238;48.730;11.566;2023-09-18T10:08:19;9.93;;;4.55;;
22144;SDS011;11238;48.730;11.566;2023-09-18T10:10:48;10.27;;;5.03;;
22144;SDS011;11238;48.730;11.566;2023-09-18T10:13:17;11.50;;;5.40;;
22144;SDS011;11238;48.730;11.566;2023-09-18T10:15:45;5.18;;;4.22;;
22144;SDS011;11238;48.730;11.566;2023-09-18T10:18:17;10.02;;;4.47;;
22144;SDS011;11238;48.730;11.566;2023-09-18T10:21:02;8.93;;;5.00;;
22144;SDS011;11238;48.730;11.566;2023-09-18T10:23:38;11.40;;;4.68;;
22144;SDS011;11238;48.730;11.566;2023-09-18T10:26:20;9.75;;;5.03;;
22144;SDS011;11238;48.730;11.566;2023-09-18T10:28:54;7.70;;;4.85;;
22144;SDS011;11238;48.730;11.566;2023-09-18T10:31:27;8.30;;;4.80;;
22144;SDS011;11238;48.730;11.566;2023-09-18T10:33:54;13.95;;;5.20;;
22144;SDS011;11238;48.730;11.566;2023-09-18T10:36:22;7.85;;;4.05;;
22144;SDS011;11238;48.730;11.566;2023-09-18T10:38:50;10.35;;;4.07;;
22144;SDS011;11238;48.730;11.566;2023-09-18T10:41:19;16.88;;;4.45;;
22144;SDS011;11238;48.730;11.566;2023-09-18T10:43:46;7.78;;;3.13;;
22144;SDS011;11238;48.730;11.566;2023-09-18T10:46:15;6.07;;;2.38;;
22144;SDS011;11238;48.730;11.566;2023-09-18T10:48:41;8.57;;;2.42;;
22144;SDS011;11238;48.730;11.566;2023-09-18T10:51:09;9.60;;;2.67;;
22144;SDS011;11238;48.730;11.566;2023-09-18T10:53:35;6.13;;;2.53;;
22144;SDS011;11238;48.730;11.566;2023-09-18T10:56:02;7.20;;;2.53;;
22144;SDS011;11238;48.730;11.566;2023-09-18T10:58:33;9.15;;;2.67;;
22144;SDS011;11238;48.730;11.566;2023-09-18T11:01:04;7.63;;;2.88;;
22144;SDS011;11238;48.730;11.566;2023-09-18T11:03:31;9.60;;;2.75;;
22144;SDS011;11238;48.730;11.566;2023-09-18T11:06:02;11.45;;;3.17;;
22144;SDS011;11238;48.730;11.566;2023-09-18T11:08:51;11.98;;;2.80;;
22144;SDS011;11238;48.730;11.566;2023-09-18T11:11:26;5.90;;;2.30;;
22144;SDS011;11238;48.730;11.566;2023-09-18T11:13:56;4.05;;;2.10;;
22144;SDS011;11238;48.730;11.566;2023-09-18T11:18:51;8.40;;;2.45;;
22144;SDS011;11238;48.730;11.566;2023-09-18T11:21:18;6.10;;;2.33;;
22144;SDS011;11238;48.730;11.566;2023-09-18T11:26:48;5.00;;;2.25;;
22144;SDS011;11238;48.730;11.566;2023-09-18T11:29:17;9.98;;;2.22;;
22144;SDS011;11238;48.730;11.566;2023-09-18T11:31:48;6.43;;;2.65;;
22144;SDS011;11238;48.730;11.566;2023-09-18T11:36:49;6.63;;;2.10;;
22144;SDS011;11238;48.730;11.566;2023-09-18T11:42:07;10.88;;;2.28;;
22144;SDS011;11238;48.730;11.566;2023-09-18T11:44:38;6.82;;;2.33;;
22144;SDS011;11238;48.730;11.566;2023-09-18T11:47:08;7.35;;;2.00;;
22144;SDS011;11238;48.730;11.566;2023-09-18T11:49:45;7.32;;;1.85;;
22144;SDS011;11238;48.730;11.566;2023-09-18T11:54:42;6.90;;;2.88;;
22144;SDS011;11238;48.730;11.566;2023-09-18T11:57:09;7.22;;;2.10;;
22144;SDS011;11238;48.730;11.566;2023-09-18T11:59:39;6.45;;;2.05;;
22144;SDS011;11238;48.730;11.566;2023-09-18T12:02:32;12.85;;;2.20;;
22144;SDS011;11238;48.730;11.566;2023-09-18T12:05:21;8.45;;;2.22;;
22144;SDS011;11238;48.730;11.566;2023-09-18T12:07:51;10.48;;;2.00;;
22144;SDS011;11238;48.730;11.566;2023-09-18T12:10:18;11.40;;;2.53;;
22144;SDS011;11238;48.730;11.566;2023-09-18T12:12:50;10.40;;;2.45;;
22144;SDS011;11238;48.730;11.566;2023-09-18T12:15:17;9.27;;;2.20;;
22144;SDS011;11238;48.730;11.566;2023-09-18T12:17:44;8.48;;;1.92;;
22144;SDS011;11238;48.730;11.566;2023-09-18T12:20:17;12.13;;;1.95;;
22144;SDS011;11238;48.730;11.566;2023-09-18T12:22:49;8.57;;;1.98;;
22144;SDS011;11238;48.730;11.566;2023-09-18T12:25:16;9.77;;;1.80;;
22144;SDS011;11238;48.730;11.566;2023-09-18T12:27:44;9.57;;;2.38;;
22144;SDS011;11238;48.730;11.566;2023-09-18T12:30:10;6.25;;;1.85;;
22144;SDS011;11238;48.730;11.566;2023-09-18T12:32:46;7.50;;;1.75;;
22144;SDS011;11238;48.730;11.566;2023-09-18T12:35:15;12.45;;;2.00;;
22144;SDS011;11238;48.730;11.566;2023-09-18T12:37:44;11.13;;;1.92;;
22144;SDS011;11238;48.730;11.566;2023-09-18T12:42:48;7.72;;;1.88;;
22144;SDS011;11238;48.730;11.566;2023-09-18T12:45:15;5.57;;;1.50;;
22144;SDS011;11238;48.730;11.566;2023-09-18T12:47:43;7.43;;;1.80;;
22144;SDS011;11238;48.730;11.566;2023-09-18T12:50:12;8.23;;;1.83;;
22144;SDS011;11238;48.730;11.566;2023-09-18T12:52:38;4.72;;;1.60;;
22144;SDS011;11238;48.730;11.566;2023-09-18T12:55:05;11.13;;;1.95;;
22144;SDS011;11238;48.730;11.566;2023-09-18T12:57:34;8.35;;;1.45;;
22144;SDS011;11238;48.730;11.566;2023-09-18T13:00:09;4.95;;;1.60;;
22144;SDS011;11238;48.730;11.566;2023-09-18T13:02:38;7.22;;;1.35;;
22144;SDS011;11238;48.730;11.566;2023-09-18T13:05:04;4.88;;;1.20;;
22144;SDS011;11238;48.730;11.566;2023-09-18T13:07:30;2.30;;;0.93;;
22144;SDS011;11238;48.730;11.566;2023-09-18T13:10:03;6.10;;;1.40;;
22144;SDS011;11238;48.730;11.566;2023-09-18T13:12:45;4.93;;;0.93;;
22144;SDS011;11238;48.730;11.566;2023-09-18T13:15:13;6.43;;;1.45;;
22144;SDS011;11238;48.730;11.566;2023-09-18T13:17:41;4.78;;;1.63;;
22144;SDS011;11238;48.730;11.566;2023-09-18T13:20:20;4.63;;;1.55;;
22144;SDS011;11238;48.730;11.566;2023-09-18T13:22:52;5.80;;;1.48;;
22144;SDS011;11238;48.730;11.566;2023-09-18T13:25:28;9.35;;;1.40;;
22144;SDS011;11238;48.730;11.566;2023-09-18T13:27:59;5.47;;;1.70;;
22144;SDS011;11238;48.730;11.566;2023-09-18T13:30:27;5.35;;;1.60;;
22144;SDS011;11238;48.730;11.566;2023-09-18T13:33:01;7.90;;;1.80;;
22144;SDS011;11238;48.730;11.566;2023-09-18T13:35:51;3.60;;;1.80;;
22144;SDS011;11238;48.730;11.566;2023-09-18T13:38:18;4.65;;;1.80;;
22144;SDS011;11238;48.730;11.566;2023-09-18T13:40:45;4.97;;;1.95;;
22144;SDS011;11238;48.730;11.566;2023-09-18T13:43:13;4.20;;;1.83;;
22144;SDS011;11238;48.730;11.566;2023-09-18T13:45:44;4.55;;;1.67;;
22144;SDS011;11238;48.730;11.566;2023-09-18T13:48:11;8.70;;;2.28;;
22144;SDS011;11238;48.730;11.566;2023-09-18T13:50:37;4.95;;;1.88;;
22144;SDS011;11238;48.730;11.566;2023-09-18T13:53:04;5.85;;;1.55;;
22144;SDS011;11238;48.730;11.566;2023-09-18T13:55:31;6.00;;;1.83;;
22144;SDS011;11238;48.730;11.566;2023-09-18T13:57:58;5.15;;;1.90;;
22144;SDS011;11238;48.730;11.566;2023-09-18T14:00:24;4.72;;;1.30;;
22144;SDS011;11238;48.730;11.566;2023-09-18T14:02:51;3.05;;;1.40;;
22144;SDS011;11238;48.730;11.566;2023-09-18T14:05:17;3.88;;;1.55;;
22144;SDS011;11238;48.730;11.566;2023-09-18T14:07:43;4.65;;;1.50;;
22144;SDS011;11238;48.730;11.566;2023-09-18T14:10:09;8.18;;;1.63;;
22144;SDS011;11238;48.730;11.566;2023-09-18T14:12:36;4.25;;;1.73;;
22144;SDS011;11238;48.730;11.566;2023-09-18T14:15:06;5.22;;;1.80;;
22144;SDS011;11238;48.730;11.566;2023-09-18T14:17:34;5.50;;;1.70;;
22144;SDS011;11238;48.730;11.566;2023-09-18T14:20:00;5.95;;;1.42;;
22144;SDS011;11238;48.730;11.566;2023-09-18T14:22:31;5.43;;;1.88;;
22144;SDS011;11238;48.730;11.566;2023-09-18T14:24:58;2.95;;;1.35;;
22144;SDS011;11238;48.730;11.566;2023-09-18T14:27:24;3.50;;;1.38;;
22144;SDS011;11238;48.730;11.566;2023-09-18T14:29:49;5.93;;;1.90;;
22144;SDS011;11238;48.730;11.566;2023-09-18T14:32:15;5.30;;;1.92;;
22144;SDS011;11238;48.730;11.566;2023-09-18T14:34:41;4.25;;;1.50;;
22144;SDS011;11238;48.730;11.566;2023-09-18T14:37:07;9.43;;;1.77;;
22144;SDS011;11238;48.730;11.566;2023-09-18T14:39:33;3.92;;;1.55;;
22144;SDS011;11238;48.730;11.566;2023-09-18T14:42:00;3.92;;;1.50;;
22144;SDS011;11238;48.730;11.566;2023-09-18T14:44:26;4.93;;;1.23;;
22144;SDS011;11238;48.730;11.566;2023-09-18T14:46:55;2.58;;;1.52;;
22144;SDS011;11238;48.730;11.566;2023-09-18T14:49:22;3.20;;;1.73;;
22144;SDS011;11238;48.730;11.566;2023-09-18T14:51:48;3.25;;;1.35;;
22144;SDS011;11238;48.730;11.566;2023-09-18T14:54:15;7.72;;;1.60;;
22144;SDS011;11238;48.730;11.566;2023-09-18T14:56:42;3.28;;;1.23;;
22144;SDS011;11238;48.730;11.566;2023-09-18T14:59:10;2.95;;;1.38;;
22144;SDS011;11238;48.730;11.566;2023-09-18T15:01:36;1.63;;;1.02;;
22144;SDS011;11238;48.730;11.566;2023-09-18T15:04:03;2.13;;;1.20;;